VOCB/CJB METAR and TAF weather

Enter ICAO airport designator
Station Type Date Time Source
VOCB METAR 2022/12/08 13:30 UTC NOAA

VOCB 081330Z 07005KT 2500 -DZ FEW008 SCT012 BKN080 25/20 Q1010 NOSIG


Station Type Date Time Source
VOCB Decoded METAR 2022/12/08 13:30 UTC NOAA

Coimbatore / Peelamedu, India (VOCB) 11-02N 077-03E 399M
Dec 08, 2022 - 08:30 AM EST / 2022.12.08 1330 UTC
Wind: from the ENE (070 degrees) at 6 MPH (5 KT):0
Visibility: 1 mile(s):0
Sky conditions: mostly cloudy
Weather: light drizzle
Temperature: 77 F (25 C)
Dew Point: 68 F (20 C)
Relative Humidity: 73%
Pressure (altimeter): 29.83 in. Hg (1010 hPa)
ob: VOCB 081330Z 07005KT 2500 -DZ FEW008 SCT012 BKN080 25/20 Q1010 NOSIG
cycle: 13

Station Type Date Time Source
VOCB TAF 2022/12/08 12:51 UTC NOAA

TAF VOCB 081100Z 0812/0918 05005KT 3000 -DZ/BR SCT012 BKN080 PROB40
TEMPO 0812/0818 2000 TSRA/ RA SCT010 FEW020CB BKN080 PROB30
TEMPO 0900/0906 2000 TSRA/ RA SCT010 FEW020CB BKN080

Example: see airport list